sensor_id;sensor_type;location;lat;lon;timestamp;P1;P2;P0
30713;PMS7003;17465;47.934;33.430;2022-09-03T00:00:54;13.50;13.00;8.25
30713;PMS7003;17465;47.934;33.430;2022-09-03T00:03:54;15.00;14.25;9.75
30713;PMS7003;17465;47.934;33.430;2022-09-03T00:06:29;15.50;15.50;9.25
30713;PMS7003;17465;47.934;33.430;2022-09-03T00:09:13;15.25;15.00;8.25
30713;PMS7003;17465;47.934;33.430;2022-09-03T00:14:48;23.00;21.75;13.00
30713;PMS7003;17465;47.934;33.430;2022-09-03T00:17:21;22.00;19.75;13.00
30713;PMS7003;17465;47.934;33.430;2022-09-03T00:20:12;25.25;25.25;15.50
30713;PMS7003;17465;47.934;33.430;2022-09-03T00:23:13;29.00;25.25;15.75
30713;PMS7003;17465;47.934;33.430;2022-09-03T00:25:45;28.75;28.00;17.75
30713;PMS7003;17465;47.934;33.430;2022-09-03T00:28:34;29.00;27.50;16.75
30713;PMS7003;17465;47.934;33.430;2022-09-03T00:31:31;34.00;30.25;19.00
30713;PMS7003;17465;47.934;33.430;2022-09-03T00:34:04;26.50;26.50;14.25
30713;PMS7003;17465;47.934;33.430;2022-09-03T00:36:37;32.25;31.00;19.75
30713;PMS7003;17465;47.934;33.430;2022-09-03T00:39:12;36.50;33.00;22.25
30713;PMS7003;17465;47.934;33.430;2022-09-03T00:41:47;38.00;32.75;21.00
30713;PMS7003;17465;47.934;33.430;2022-09-03T00:47:12;35.75;31.00;18.50
30713;PMS7003;17465;47.934;33.430;2022-09-03T00:52:47;34.00;30.75;16.75
30713;PMS7003;17465;47.934;33.430;2022-09-03T00:55:29;26.50;24.75;16.25
30713;PMS7003;17465;47.934;33.430;2022-09-03T01:00:51;26.50;19.75;10.25
30713;PMS7003;17465;47.934;33.430;2022-09-03T01:03:46;25.00;23.75;13.00
30713;PMS7003;17465;47.934;33.430;2022-09-03T01:06:29;28.75;27.50;16.25
30713;PMS7003;17465;47.934;33.430;2022-09-03T01:17:54;27.50;25.50;13.75
30713;PMS7003;17465;47.934;33.430;2022-09-03T01:28:28;31.25;29.50;16.25
30713;PMS7003;17465;47.934;33.430;2022-09-03T01:31:23;33.25;30.00;19.75
30713;PMS7003;17465;47.934;33.430;2022-09-03T01:39:44;36.50;32.50;21.50
30713;PMS7003;17465;47.934;33.430;2022-09-03T01:45:34;40.00;34.75;22.25
30713;PMS7003;17465;47.934;33.430;2022-09-03T01:54:29;37.50;33.75;23.00
30713;PMS7003;17465;47.934;33.430;2022-09-03T01:57:17;34.50;32.00;19.25
30713;PMS7003;17465;47.934;33.430;2022-09-03T02:00:03;36.50;31.00;19.75
30713;PMS7003;17465;47.934;33.430;2022-09-03T02:02:33;30.25;29.50;19.50
30713;PMS7003;17465;47.934;33.430;2022-09-03T02:05:06;32.25;31.25;19.50
30713;PMS7003;17465;47.934;33.430;2022-09-03T02:07:47;31.00;29.50;19.00
30713;PMS7003;17465;47.934;33.430;2022-09-03T02:10:21;31.50;31.25;21.00
30713;PMS7003;17465;47.934;33.430;2022-09-03T02:12:54;29.00;28.50;18.00
30713;PMS7003;17465;47.934;33.430;2022-09-03T02:15:44;31.50;27.25;14.75
30713;PMS7003;17465;47.934;33.430;2022-09-03T02:18:15;31.75;31.00;18.00
30713;PMS7003;17465;47.934;33.430;2022-09-03T02:20:48;27.25;27.25;18.25
30713;PMS7003;17465;47.934;33.430;2022-09-03T02:23:21;28.25;26.75;17.75
30713;PMS7003;17465;47.934;33.430;2022-09-03T02:25:56;33.75;31.50;19.25
30713;PMS7003;17465;47.934;33.430;2022-09-03T02:28:29;31.50;29.25;19.00
30713;PMS7003;17465;47.934;33.430;2022-09-03T02:31:03;27.25;26.50;15.75
30713;PMS7003;17465;47.934;33.430;2022-09-03T02:33:38;29.25;27.25;17.75
30713;PMS7003;17465;47.934;33.430;2022-09-03T02:36:12;29.25;28.50;18.25
30713;PMS7003;17465;47.934;33.430;2022-09-03T02:38:46;31.75;28.75;18.25
30713;PMS7003;17465;47.934;33.430;2022-09-03T02:41:16;33.00;31.25;20.75
30713;PMS7003;17465;47.934;33.430;2022-09-03T02:43:48;37.75;33.75;21.00
30713;PMS7003;17465;47.934;33.430;2022-09-03T02:46:24;34.75;32.25;21.50
30713;PMS7003;17465;47.934;33.430;2022-09-03T02:48:59;29.25;28.00;18.50
30713;PMS7003;17465;47.934;33.430;2022-09-03T02:51:38;30.75;30.75;18.25
30713;PMS7003;17465;47.934;33.430;2022-09-03T02:54:27;24.50;24.50;15.50
30713;PMS7003;17465;47.934;33.430;2022-09-03T02:56:58;24.50;22.00;12.75
30713;PMS7003;17465;47.934;33.430;2022-09-03T02:59:28;25.25;23.25;14.00
30713;PMS7003;17465;47.934;33.430;2022-09-03T03:01:58;21.00;21.00;12.50
30713;PMS7003;17465;47.934;33.430;2022-09-03T03:04:30;23.75;20.50;12.50
30713;PMS7003;17465;47.934;33.430;2022-09-03T03:07:01;20.50;20.50;8.75
30713;PMS7003;17465;47.934;33.430;2022-09-03T03:09:31;27.25;27.00;14.00
30713;PMS7003;17465;47.934;33.430;2022-09-03T03:12:02;32.50;29.50;17.25
30713;PMS7003;17465;47.934;33.430;2022-09-03T03:14:33;37.00;33.00;21.00
30713;PMS7003;17465;47.934;33.430;2022-09-03T03:17:04;31.25;31.00;17.75
30713;PMS7003;17465;47.934;33.430;2022-09-03T03:19:35;34.75;29.25;21.00
30713;PMS7003;17465;47.934;33.430;2022-09-03T03:22:08;35.50;30.50;21.00
30713;PMS7003;17465;47.934;33.430;2022-09-03T03:24:38;32.00;30.00;20.00
30713;PMS7003;17465;47.934;33.430;2022-09-03T03:27:09;30.50;29.50;18.50
30713;PMS7003;17465;47.934;33.430;2022-09-03T03:29:39;37.25;34.25;21.00
30713;PMS7003;17465;47.934;33.430;2022-09-03T03:32:10;34.25;31.25;18.75
30713;PMS7003;17465;47.934;33.430;2022-09-03T03:34:40;24.00;23.25;18.25
30713;PMS7003;17465;47.934;33.430;2022-09-03T03:37:10;31.00;30.25;19.00
30713;PMS7003;17465;47.934;33.430;2022-09-03T03:39:41;33.00;31.00;19.75
30713;PMS7003;17465;47.934;33.430;2022-09-03T03:42:11;38.00;33.50;21.00
30713;PMS7003;17465;47.934;33.430;2022-09-03T03:44:42;38.00;33.75;21.00
30713;PMS7003;17465;47.934;33.430;2022-09-03T03:47:13;41.75;35.50;21.00
30713;PMS7003;17465;47.934;33.430;2022-09-03T03:49:43;35.00;32.50;20.75
30713;PMS7003;17465;47.934;33.430;2022-09-03T03:52:14;39.00;33.50;20.75
30713;PMS7003;17465;47.934;33.430;2022-09-03T03:54:44;36.50;34.00;21.50
30713;PMS7003;17465;47.934;33.430;2022-09-03T03:57:15;36.25;33.00;20.25
30713;PMS7003;17465;47.934;33.430;2022-09-03T03:59:46;40.25;35.50;20.75
30713;PMS7003;17465;47.934;33.430;2022-09-03T04:02:18;37.75;33.00;21.00
30713;PMS7003;17465;47.934;33.430;2022-09-03T04:04:49;33.00;30.75;18.25
30713;PMS7003;17465;47.934;33.430;2022-09-03T04:07:19;36.00;33.50;21.00
30713;PMS7003;17465;47.934;33.430;2022-09-03T04:09:50;31.00;29.25;17.50
30713;PMS7003;17465;47.934;33.430;2022-09-03T04:12:20;33.75;31.50;18.25
30713;PMS7003;17465;47.934;33.430;2022-09-03T04:14:51;25.75;24.25;16.00
30713;PMS7003;17465;47.934;33.430;2022-09-03T04:17:22;33.00;31.00;21.00
30713;PMS7003;17465;47.934;33.430;2022-09-03T04:19:53;30.00;28.50;17.75
30713;PMS7003;17465;47.934;33.430;2022-09-03T04:22:24;26.25;26.00;17.75
30713;PMS7003;17465;47.934;33.430;2022-09-03T04:24:56;30.00;25.75;14.00
30713;PMS7003;17465;47.934;33.430;2022-09-03T04:27:26;28.25;25.50;14.00
30713;PMS7003;17465;47.934;33.430;2022-09-03T04:29:57;25.25;22.75;14.25
30713;PMS7003;17465;47.934;33.430;2022-09-03T04:32:27;22.25;22.25;14.25
30713;PMS7003;17465;47.934;33.430;2022-09-03T04:34:58;22.75;21.75;13.25
30713;PMS7003;17465;47.934;33.430;2022-09-03T04:37:28;11.25;10.25;5.50
30713;PMS7003;17465;47.934;33.430;2022-09-03T04:39:58;15.50;14.75;9.25
30713;PMS7003;17465;47.934;33.430;2022-09-03T04:42:29;12.25;10.25;7.00
30713;PMS7003;17465;47.934;33.430;2022-09-03T04:44:59;11.25;11.25;8.25
30713;PMS7003;17465;47.934;33.430;2022-09-03T04:47:30;12.75;11.75;8.50
30713;PMS7003;17465;47.934;33.430;2022-09-03T04:50:00;11.00;10.50;6.75
30713;PMS7003;17465;47.934;33.430;2022-09-03T04:52:32;9.50;9.50;6.50
30713;PMS7003;17465;47.934;33.430;2022-09-03T04:55:06;11.00;11.00;6.00
30713;PMS7003;17465;47.934;33.430;2022-09-03T04:57:37;17.25;13.25;8.25
30713;PMS7003;17465;47.934;33.430;2022-09-03T05:00:08;19.25;17.75;12.00
30713;PMS7003;17465;47.934;33.430;2022-09-03T05:02:40;17.50;17.50;11.00
30713;PMS7003;17465;47.934;33.430;2022-09-03T05:05:10;16.75;16.00;12.00
30713;PMS7003;17465;47.934;33.430;2022-09-03T05:07:41;15.50;15.50;11.25
30713;PMS7003;17465;47.934;33.430;2022-09-03T05:10:12;15.75;14.75;8.00
30713;PMS7003;17465;47.934;33.430;2022-09-03T05:12:44;14.00;14.00;9.00
30713;PMS7003;17465;47.934;33.430;2022-09-03T05:15:16;18.75;17.00;10.75
30713;PMS7003;17465;47.934;33.430;2022-09-03T05:17:46;19.00;17.50;11.25
30713;PMS7003;17465;47.934;33.430;2022-09-03T05:20:17;30.50;28.75;20.00
30713;PMS7003;17465;47.934;33.430;2022-09-03T05:22:49;17.25;15.50;11.50
30713;PMS7003;17465;47.934;33.430;2022-09-03T05:25:20;16.00;16.00;10.00
30713;PMS7003;17465;47.934;33.430;2022-09-03T05:27:51;14.00;11.00;7.50
30713;PMS7003;17465;47.934;33.430;2022-09-03T05:30:21;66.50;53.75;32.00
30713;PMS7003;17465;47.934;33.430;2022-09-03T05:32:52;8.40;8.40;6.00
30713;PMS7003;17465;47.934;33.430;2022-09-03T05:35:24;5.20;5.20;3.80
30713;PMS7003;17465;47.934;33.430;2022-09-03T05:37:56;9.80;9.00;4.00
30713;PMS7003;17465;47.934;33.430;2022-09-03T05:40:27;7.80;7.80;4.40
30713;PMS7003;17465;47.934;33.430;2022-09-03T05:42:57;5.00;5.00;3.20
30713;PMS7003;17465;47.934;33.430;2022-09-03T05:45:28;7.25;7.25;5.50
30713;PMS7003;17465;47.934;33.430;2022-09-03T05:47:59;7.20;6.60;3.20
30713;PMS7003;17465;47.934;33.430;2022-09-03T05:50:30;5.60;5.20;2.40
30713;PMS7003;17465;47.934;33.430;2022-09-03T05:53:02;4.80;4.40;3.00
30713;PMS7003;17465;47.934;33.430;2022-09-03T05:55:33;5.40;4.40;3.00
30713;PMS7003;17465;47.934;33.430;2022-09-03T05:58:04;5.00;5.00;3.00
30713;PMS7003;17465;47.934;33.430;2022-09-03T06:00:34;4.60;4.60;2.40
30713;PMS7003;17465;47.934;33.430;2022-09-03T06:03:13;7.40;4.80;2.20
30713;PMS7003;17465;47.934;33.430;2022-09-03T06:05:38;5.00;3.80;2.40
30713;PMS7003;17465;47.934;33.430;2022-09-03T06:08:08;4.00;4.00;1.60
30713;PMS7003;17465;47.934;33.430;2022-09-03T06:10:41;4.60;2.60;1.20
30713;PMS7003;17465;47.934;33.430;2022-09-03T06:13:13;6.40;5.60;4.20
30713;PMS7003;17465;47.934;33.430;2022-09-03T06:15:44;5.00;5.00;2.00
30713;PMS7003;17465;47.934;33.430;2022-09-03T06:18:15;3.00;3.00;1.60
30713;PMS7003;17465;47.934;33.430;2022-09-03T06:20:52;3.00;3.00;2.00
30713;PMS7003;17465;47.934;33.430;2022-09-03T06:23:25;4.00;1.60;0.20
30713;PMS7003;17465;47.934;33.430;2022-09-03T06:26:09;4.00;4.00;2.20
30713;PMS7003;17465;47.934;33.430;2022-09-03T06:28:41;2.80;2.80;1.20
30713;PMS7003;17465;47.934;33.430;2022-09-03T06:31:14;4.60;3.20;1.00
30713;PMS7003;17465;47.934;33.430;2022-09-03T06:33:46;5.40;5.40;4.20
30713;PMS7003;17465;47.934;33.430;2022-09-03T06:36:18;3.40;3.40;1.80
30713;PMS7003;17465;47.934;33.430;2022-09-03T06:38:53;4.60;4.60;2.80
30713;PMS7003;17465;47.934;33.430;2022-09-03T06:41:27;5.60;5.60;3.60
30713;PMS7003;17465;47.934;33.430;2022-09-03T06:44:17;3.60;3.60;2.00
30713;PMS7003;17465;47.934;33.430;2022-09-03T06:46:48;3.40;3.40;2.00
30713;PMS7003;17465;47.934;33.430;2022-09-03T06:49:19;3.00;3.00;2.00
30713;PMS7003;17465;47.934;33.430;2022-09-03T06:51:49;4.00;4.00;2.00
30713;PMS7003;17465;47.934;33.430;2022-09-03T06:54:20;4.80;3.80;2.60
30713;PMS7003;17465;47.934;33.430;2022-09-03T06:56:50;3.60;3.60;1.80
30713;PMS7003;17465;47.934;33.430;2022-09-03T06:59:21;6.00;4.80;3.00
30713;PMS7003;17465;47.934;33.430;2022-09-03T07:01:52;5.00;5.00;3.00
30713;PMS7003;17465;47.934;33.430;2022-09-03T07:04:22;6.00;6.00;3.00
30713;PMS7003;17465;47.934;33.430;2022-09-03T07:06:53;3.40;3.40;1.20
30713;PMS7003;17465;47.934;33.430;2022-09-03T07:09:24;3.00;3.00;2.20
30713;PMS7003;17465;47.934;33.430;2022-09-03T07:11:54;3.40;3.40;1.80
30713;PMS7003;17465;47.934;33.430;2022-09-03T07:14:25;3.60;3.60;2.00
30713;PMS7003;17465;47.934;33.430;2022-09-03T07:16:55;3.40;3.40;1.20
30713;PMS7003;17465;47.934;33.430;2022-09-03T07:19:25;2.60;2.60;1.40
30713;PMS7003;17465;47.934;33.430;2022-09-03T07:21:56;61.50;49.25;31.75
30713;PMS7003;17465;47.934;33.430;2022-09-03T07:24:26;41.00;34.40;21.60
30713;PMS7003;17465;47.934;33.430;2022-09-03T07:26:57;25.60;22.20;11.80
30713;PMS7003;17465;47.934;33.430;2022-09-03T07:29:27;3.60;3.60;1.00
30713;PMS7003;17465;47.934;33.430;2022-09-03T07:31:58;8.20;8.20;5.60
30713;PMS7003;17465;47.934;33.430;2022-09-03T07:34:28;3.80;3.80;1.20
30713;PMS7003;17465;47.934;33.430;2022-09-03T07:36:59;4.00;4.00;2.20
30713;PMS7003;17465;47.934;33.430;2022-09-03T07:39:30;3.40;3.40;0.60
30713;PMS7003;17465;47.934;33.430;2022-09-03T07:42:01;2.40;2.40;1.00
30713;PMS7003;17465;47.934;33.430;2022-09-03T07:44:32;3.20;3.20;2.00
30713;PMS7003;17465;47.934;33.430;2022-09-03T07:47:02;3.60;3.60;1.60
30713;PMS7003;17465;47.934;33.430;2022-09-03T07:49:32;2.20;2.20;1.00
30713;PMS7003;17465;47.934;33.430;2022-09-03T07:52:03;2.60;2.60;0.80
30713;PMS7003;17465;47.934;33.430;2022-09-03T07:54:35;2.00;2.00;1.00
30713;PMS7003;17465;47.934;33.430;2022-09-03T07:57:06;4.60;3.00;1.20
30713;PMS7003;17465;47.934;33.430;2022-09-03T07:59:37;4.00;2.80;2.00
30713;PMS7003;17465;47.934;33.430;2022-09-03T08:02:07;4.00;4.00;2.00
30713;PMS7003;17465;47.934;33.430;2022-09-03T08:04:38;4.60;4.60;2.00
30713;PMS7003;17465;47.934;33.430;2022-09-03T08:07:08;2.00;2.00;0.00
30713;PMS7003;17465;47.934;33.430;2022-09-03T08:09:40;2.00;2.00;1.00
30713;PMS7003;17465;47.934;33.430;2022-09-03T08:12:10;1.60;1.60;0.00
30713;PMS7003;17465;47.934;33.430;2022-09-03T08:14:41;2.00;2.00;1.00
30713;PMS7003;17465;47.934;33.430;2022-09-03T08:17:11;2.00;2.00;1.00
30713;PMS7003;17465;47.934;33.430;2022-09-03T08:19:42;3.80;3.40;1.20
30713;PMS7003;17465;47.934;33.430;2022-09-03T08:22:12;2.80;2.20;2.00
30713;PMS7003;17465;47.934;33.430;2022-09-03T08:24:43;2.60;2.60;1.20
30713;PMS7003;17465;47.934;33.430;2022-09-03T08:27:13;1.40;1.40;0.60
30713;PMS7003;17465;47.934;33.430;2022-09-03T08:29:45;2.00;2.00;1.00
30713;PMS7003;17465;47.934;33.430;2022-09-03T08:32:15;1.60;1.00;0.00
30713;PMS7003;17465;47.934;33.430;2022-09-03T08:34:46;1.80;1.80;0.80
30713;PMS7003;17465;47.934;33.430;2022-09-03T08:37:17;1.60;1.60;0.60
30713;PMS7003;17465;47.934;33.430;2022-09-03T08:39:48;3.00;3.00;1.80
30713;PMS7003;17465;47.934;33.430;2022-09-03T08:45:07;2.00;2.00;0.00
30713;PMS7003;17465;47.934;33.430;2022-09-03T08:47:43;1.00;1.00;0.00
30713;PMS7003;17465;47.934;33.430;2022-09-03T08:50:31;2.60;2.00;1.20
30713;PMS7003;17465;47.934;33.430;2022-09-03T08:55:48;2.20;2.00;1.00
30713;PMS7003;17465;47.934;33.430;2022-09-03T08:58:26;1.40;1.40;0.00
30713;PMS7003;17465;47.934;33.430;2022-09-03T09:01:21;3.60;3.00;1.20
30713;PMS7003;17465;47.934;33.430;2022-09-03T09:13:19;3.20;3.20;2.00
30713;PMS7003;17465;47.934;33.430;2022-09-03T09:16:35;3.00;3.00;1.80
30713;PMS7003;17465;47.934;33.430;2022-09-03T09:18:41;101.00;97.00;57.75
30713;PMS7003;17465;47.934;33.430;2022-09-03T09:21:26;4.80;4.80;2.40
30713;PMS7003;17465;47.934;33.430;2022-09-03T09:24:04;15.40;14.60;11.00
30713;PMS7003;17465;47.934;33.430;2022-09-03T09:26:32;1.60;1.60;0.60
30713;PMS7003;17465;47.934;33.430;2022-09-03T09:29:04;8.40;7.00;3.80
30713;PMS7003;17465;47.934;33.430;2022-09-03T09:31:38;2.40;2.40;1.00
30713;PMS7003;17465;47.934;33.430;2022-09-03T09:34:11;2.80;2.80;1.60
30713;PMS7003;17465;47.934;33.430;2022-09-03T09:36:42;5.20;5.00;3.60
30713;PMS7003;17465;47.934;33.430;2022-09-03T09:39:21;3.20;3.20;1.60
30713;PMS7003;17465;47.934;33.430;2022-09-03T09:41:58;3.40;3.40;1.60
30713;PMS7003;17465;47.934;33.430;2022-09-03T09:44:30;5.00;3.80;1.60
30713;PMS7003;17465;47.934;33.430;2022-09-03T09:47:04;2.80;2.80;2.00
30713;PMS7003;17465;47.934;33.430;2022-09-03T09:49:53;3.00;2.80;0.80
30713;PMS7003;17465;47.934;33.430;2022-09-03T09:52:26;2.60;2.60;1.00
30713;PMS7003;17465;47.934;33.430;2022-09-03T09:55:05;3.00;3.00;1.20
30713;PMS7003;17465;47.934;33.430;2022-09-03T09:57:37;2.00;2.00;0.60
30713;PMS7003;17465;47.934;33.430;2022-09-03T10:00:12;2.80;2.00;1.00
30713;PMS7003;17465;47.934;33.430;2022-09-03T10:02:50;2.20;2.20;1.80
30713;PMS7003;17465;47.934;33.430;2022-09-03T10:07:58;4.25;4.25;3.00
30713;PMS7003;17465;47.934;33.430;2022-09-03T10:10:34;3.00;3.00;2.00
30713;PMS7003;17465;47.934;33.430;2022-09-03T10:13:11;3.00;2.80;2.00
30713;PMS7003;17465;47.934;33.430;2022-09-03T10:15:48;5.00;5.00;3.00
30713;PMS7003;17465;47.934;33.430;2022-09-03T10:18:57;4.60;3.40;1.40
30713;PMS7003;17465;47.934;33.430;2022-09-03T10:24:46;4.60;3.80;2.20
30713;PMS7003;17465;47.934;33.430;2022-09-03T10:27:15;6.20;6.20;4.20
30713;PMS7003;17465;47.934;33.430;2022-09-03T10:29:46;3.80;3.80;2.40
30713;PMS7003;17465;47.934;33.430;2022-09-03T10:35:22;4.00;3.00;1.60
30713;PMS7003;17465;47.934;33.430;2022-09-03T10:46:16;6.00;6.00;4.00
30713;PMS7003;17465;47.934;33.430;2022-09-03T10:51:40;5.00;5.00;2.20
30713;PMS7003;17465;47.934;33.430;2022-09-03T10:54:23;8.60;8.00;4.40
30713;PMS7003;17465;47.934;33.430;2022-09-03T11:00:10;6.40;6.00;4.00
30713;PMS7003;17465;47.934;33.430;2022-09-03T11:05:54;5.00;5.00;2.80
30713;PMS7003;17465;47.934;33.430;2022-09-03T11:08:40;6.00;6.00;3.00
30713;PMS7003;17465;47.934;33.430;2022-09-03T11:11:13;3.80;3.80;2.00
30713;PMS7003;17465;47.934;33.430;2022-09-03T11:13:47;5.60;4.60;2.00
30713;PMS7003;17465;47.934;33.430;2022-09-03T11:16:30;6.80;5.20;3.60
30713;PMS7003;17465;47.934;33.430;2022-09-03T11:19:15;3.00;1.00;1.00
30713;PMS7003;17465;47.934;33.430;2022-09-03T11:21:44;4.60;4.60;3.00
30713;PMS7003;17465;47.934;33.430;2022-09-03T11:24:23;2.60;2.60;1.00
30713;PMS7003;17465;47.934;33.430;2022-09-03T11:29:33;4.00;3.20;2.00
30713;PMS7003;17465;47.934;33.430;2022-09-03T11:35:22;5.00;4.60;2.60
30713;PMS7003;17465;47.934;33.430;2022-09-03T11:37:59;7.00;6.80;3.80
30713;PMS7003;17465;47.934;33.430;2022-09-03T11:40:33;7.00;6.40;4.00
30713;PMS7003;17465;47.934;33.430;2022-09-03T11:43:07;5.80;5.80;2.00
30713;PMS7003;17465;47.934;33.430;2022-09-03T11:49:32;5.60;5.60;4.40
30713;PMS7003;17465;47.934;33.430;2022-09-03T11:52:02;4.00;4.00;2.40
30713;PMS7003;17465;47.934;33.430;2022-09-03T11:54:42;3.00;3.00;1.20
30713;PMS7003;17465;47.934;33.430;2022-09-03T11:57:25;2.20;2.00;1.00
30713;PMS7003;17465;47.934;33.430;2022-09-03T12:00:07;4.40;4.40;2.00
30713;PMS7003;17465;47.934;33.430;2022-09-03T12:02:55;4.60;4.00;1.00
30713;PMS7003;17465;47.934;33.430;2022-09-03T12:11:19;7.00;5.00;3.00
30713;PMS7003;17465;47.934;33.430;2022-09-03T12:17:18;7.00;6.00;4.40
30713;PMS7003;17465;47.934;33.430;2022-09-03T12:20:10;6.80;6.80;5.00
30713;PMS7003;17465;47.934;33.430;2022-09-03T12:22:36;9.80;8.80;5.20
30713;PMS7003;17465;47.934;33.430;2022-09-03T12:25:07;7.80;7.80;5.00
30713;PMS7003;17465;47.934;33.430;2022-09-03T12:27:43;7.00;7.00;3.00
30713;PMS7003;17465;47.934;33.430;2022-09-03T12:30:17;11.40;10.60;7.20
30713;PMS7003;17465;47.934;33.430;2022-09-03T12:33:01;3.00;3.00;0.80
30713;PMS7003;17465;47.934;33.430;2022-09-03T12:35:38;7.20;5.80;3.00
30713;PMS7003;17465;47.934;33.430;2022-09-03T12:38:11;6.20;5.20;3.20
30713;PMS7003;17465;47.934;33.430;2022-09-03T12:40:44;8.60;7.00;5.00
30713;PMS7003;17465;47.934;33.430;2022-09-03T12:43:16;6.80;6.60;4.40
30713;PMS7003;17465;47.934;33.430;2022-09-03T12:45:49;4.00;3.60;2.00
30713;PMS7003;17465;47.934;33.430;2022-09-03T12:48:21;4.20;4.20;1.60
30713;PMS7003;17465;47.934;33.430;2022-09-03T12:51:00;4.00;2.60;0.80
30713;PMS7003;17465;47.934;33.430;2022-09-03T12:53:33;4.80;4.80;3.00
30713;PMS7003;17465;47.934;33.430;2022-09-03T12:56:03;2.60;2.60;1.60
30713;PMS7003;17465;47.934;33.430;2022-09-03T13:01:28;3.60;3.60;2.20
30713;PMS7003;17465;47.934;33.430;2022-09-03T13:04:04;3.40;3.40;1.00
30713;PMS7003;17465;47.934;33.430;2022-09-03T13:06:44;5.20;5.20;1.40
30713;PMS7003;17465;47.934;33.430;2022-09-03T13:09:32;4.80;4.00;2.00
30713;PMS7003;17465;47.934;33.430;2022-09-03T13:12:04;2.00;2.00;1.60
30713;PMS7003;17465;47.934;33.430;2022-09-03T13:14:47;3.60;3.60;1.80
30713;PMS7003;17465;47.934;33.430;2022-09-03T13:23:11;3.00;3.00;1.40
30713;PMS7003;17465;47.934;33.430;2022-09-03T13:25:51;6.00;4.20;2.00
30713;PMS7003;17465;47.934;33.430;2022-09-03T13:28:37;3.60;3.60;1.60
30713;PMS7003;17465;47.934;33.430;2022-09-03T13:31:12;3.00;3.00;2.00
30713;PMS7003;17465;47.934;33.430;2022-09-03T13:34:04;3.80;3.80;2.00
30713;PMS7003;17465;47.934;33.430;2022-09-03T13:36:42;5.40;3.80;1.60
30713;PMS7003;17465;47.934;33.430;2022-09-03T13:39:40;5.60;3.00;2.00
30713;PMS7003;17465;47.934;33.430;2022-09-03T13:42:05;3.40;3.40;1.60
30713;PMS7003;17465;47.934;33.430;2022-09-03T13:44:57;3.40;3.40;1.80
30713;PMS7003;17465;47.934;33.430;2022-09-03T13:47:55;3.80;3.80;1.40
30713;PMS7003;17465;47.934;33.430;2022-09-03T13:50:21;4.40;4.40;2.60
30713;PMS7003;17465;47.934;33.430;2022-09-03T13:55:35;3.80;3.60;1.80
30713;PMS7003;17465;47.934;33.430;2022-09-03T14:01:14;4.80;4.80;3.60
30713;PMS7003;17465;47.934;33.430;2022-09-03T14:03:48;4.80;4.80;3.00
30713;PMS7003;17465;47.934;33.430;2022-09-03T14:12:16;7.40;5.00;2.00
30713;PMS7003;17465;47.934;33.430;2022-09-03T14:15:14;5.80;5.60;3.60
30713;PMS7003;17465;47.934;33.430;2022-09-03T14:17:58;5.40;5.40;2.40
30713;PMS7003;17465;47.934;33.430;2022-09-03T14:20:46;5.00;5.00;3.00
30713;PMS7003;17465;47.934;33.430;2022-09-03T14:26:15;7.00;4.60;2.40
30713;PMS7003;17465;47.934;33.430;2022-09-03T14:28:49;2.80;2.80;0.40
30713;PMS7003;17465;47.934;33.430;2022-09-03T14:40:46;5.20;2.60;2.00
30713;PMS7003;17465;47.934;33.430;2022-09-03T14:42:43;3.00;3.00;1.00
30713;PMS7003;17465;47.934;33.430;2022-09-03T14:45:24;4.80;4.80;2.00
30713;PMS7003;17465;47.934;33.430;2022-09-03T14:59:44;3.40;3.40;2.00
30713;PMS7003;17465;47.934;33.430;2022-09-03T15:05:48;5.40;4.00;2.60
30713;PMS7003;17465;47.934;33.430;2022-09-03T15:11:28;2.40;2.40;1.00
30713;PMS7003;17465;47.934;33.430;2022-09-03T15:14:04;5.40;5.40;3.20
30713;PMS7003;17465;47.934;33.430;2022-09-03T15:19:28;3.00;3.00;2.00
30713;PMS7003;17465;47.934;33.430;2022-09-03T15:22:12;4.60;3.20;2.60
30713;PMS7003;17465;47.934;33.430;2022-09-03T15:24:55;4.60;3.60;2.60
30713;PMS7003;17465;47.934;33.430;2022-09-03T15:30:56;4.00;4.00;1.60
30713;PMS7003;17465;47.934;33.430;2022-09-03T15:33:12;3.60;3.60;1.20
30713;PMS7003;17465;47.934;33.430;2022-09-03T15:36:04;3.00;3.00;1.00
30713;PMS7003;17465;47.934;33.430;2022-09-03T15:44:18;6.00;5.20;3.00
30713;PMS7003;17465;47.934;33.430;2022-09-03T15:52:30;3.80;3.80;1.00
30713;PMS7003;17465;47.934;33.430;2022-09-03T15:55:15;5.00;4.40;1.80
30713;PMS7003;17465;47.934;33.430;2022-09-03T15:57:49;6.40;5.00;2.00
30713;PMS7003;17465;47.934;33.430;2022-09-03T16:00:25;5.00;5.00;2.40
30713;PMS7003;17465;47.934;33.430;2022-09-03T16:03:08;4.60;4.60;3.00
30713;PMS7003;17465;47.934;33.430;2022-09-03T16:05:41;2.00;2.00;1.00
30713;PMS7003;17465;47.934;33.430;2022-09-03T16:16:52;3.00;3.00;2.20
30713;PMS7003;17465;47.934;33.430;2022-09-03T16:19:53;5.20;5.20;2.40
30713;PMS7003;17465;47.934;33.430;2022-09-03T16:22:32;7.60;4.80;3.00
30713;PMS7003;17465;47.934;33.430;2022-09-03T16:25:18;4.80;4.80;3.20
30713;PMS7003;17465;47.934;33.430;2022-09-03T16:27:54;8.20;6.40;2.00
30713;PMS7003;17465;47.934;33.430;2022-09-03T16:33:07;5.00;5.00;2.00
30713;PMS7003;17465;47.934;33.430;2022-09-03T16:35:52;5.40;4.60;2.40
30713;PMS7003;17465;47.934;33.430;2022-09-03T16:41:33;4.00;4.00;2.00
30713;PMS7003;17465;47.934;33.430;2022-09-03T16:44:23;7.80;6.80;4.40
30713;PMS7003;17465;47.934;33.430;2022-09-03T16:52:46;6.80;6.80;3.40
30713;PMS7003;17465;47.934;33.430;2022-09-03T16:58:22;5.40;5.40;3.20
30713;PMS7003;17465;47.934;33.430;2022-09-03T17:06:50;6.00;5.20;4.20
30713;PMS7003;17465;47.934;33.430;2022-09-03T17:15:55;7.20;5.00;3.00
30713;PMS7003;17465;47.934;33.430;2022-09-03T17:18:57;5.00;5.00;2.60
30713;PMS7003;17465;47.934;33.430;2022-09-03T17:27:30;7.60;5.60;3.20
30713;PMS7003;17465;47.934;33.430;2022-09-03T17:32:52;5.40;4.20;1.80
30713;PMS7003;17465;47.934;33.430;2022-09-03T17:35:37;5.80;4.00;3.00
30713;PMS7003;17465;47.934;33.430;2022-09-03T17:48:03;4.40;4.40;3.00
30713;PMS7003;17465;47.934;33.430;2022-09-03T17:50:44;6.00;6.00;3.00
30713;PMS7003;17465;47.934;33.430;2022-09-03T17:53:22;6.80;6.80;4.80
30713;PMS7003;17465;47.934;33.430;2022-09-03T17:56:00;5.80;5.80;4.40
30713;PMS7003;17465;47.934;33.430;2022-09-03T17:58:35;5.80;5.80;3.20
30713;PMS7003;17465;47.934;33.430;2022-09-03T18:06:33;5.80;5.80;3.40
30713;PMS7003;17465;47.934;33.430;2022-09-03T18:09:10;8.00;6.80;4.20
30713;PMS7003;17465;47.934;33.430;2022-09-03T18:12:03;8.40;8.40;6.00
30713;PMS7003;17465;47.934;33.430;2022-09-03T18:19:58;7.25;7.25;5.75
30713;PMS7003;17465;47.934;33.430;2022-09-03T18:22:52;9.50;9.50;6.00
30713;PMS7003;17465;47.934;33.430;2022-09-03T18:25:40;14.75;13.75;10.00
30713;PMS7003;17465;47.934;33.430;2022-09-03T18:28:14;8.00;7.00;5.80
30713;PMS7003;17465;47.934;33.430;2022-09-03T18:30:49;8.80;8.80;6.00
30713;PMS7003;17465;47.934;33.430;2022-09-03T18:33:21;8.60;8.00;5.00
30713;PMS7003;17465;47.934;33.430;2022-09-03T18:35:55;8.80;8.80;6.00
30713;PMS7003;17465;47.934;33.430;2022-09-03T18:38:29;6.60;5.80;3.60
30713;PMS7003;17465;47.934;33.430;2022-09-03T18:41:04;6.00;6.00;4.50